Alva, Oklahoma
Current Conditions -  °F | °C
As of 6:35 PM on Friday 19 Dec 2014 (Local Time) from KAVK Reporting Station
Overcast Overcast  
Wind Chill:   Ceiling: 2300
Heat Index:   Visibility: 9mi
Dew Point:   Wind: 6mph
Humidity: 93%   Direction: 140°SE
Pressure: 30.18"   Gusts: NA
Location:  36.8°N, 98.67°W
Report Text: KAVK 200035Z AUTO 14005KT 9SM OVC023 04/03 A3018 RMK AO2
Loading
Personal Weather Stations






























Interactive Weather Map New forecast layout! Learn more

10-Day Weather Forecast

Advertisements
Track Severe Weather on mobile